sensor_id;sensor_type;location;lat;lon;timestamp;P1;durP1;ratioP1;P2;durP2;ratioP2
73130;SDS011;64204;13.766;100.702;2024-03-17T00:01:10;14.88;;;9.57;;
73130;SDS011;64204;13.766;100.702;2024-03-17T00:03:37;14.55;;;9.50;;
73130;SDS011;64204;13.766;100.702;2024-03-17T00:06:03;17.48;;;10.07;;
73130;SDS011;64204;13.766;100.702;2024-03-17T00:08:30;20.02;;;12.05;;
73130;SDS011;64204;13.766;100.702;2024-03-17T00:10:56;20.50;;;10.68;;
73130;SDS011;64204;13.766;100.702;2024-03-17T00:13:23;18.45;;;11.48;;
73130;SDS011;64204;13.766;100.702;2024-03-17T00:15:50;23.75;;;13.05;;
73130;SDS011;64204;13.766;100.702;2024-03-17T00:18:17;25.95;;;13.00;;
73130;SDS011;64204;13.766;100.702;2024-03-17T00:20:43;30.75;;;15.15;;
73130;SDS011;64204;13.766;100.702;2024-03-17T00:23:10;22.77;;;14.25;;
73130;SDS011;64204;13.766;100.702;2024-03-17T00:25:37;27.58;;;15.57;;
73130;SDS011;64204;13.766;100.702;2024-03-17T00:28:04;35.25;;;17.52;;
73130;SDS011;64204;13.766;100.702;2024-03-17T00:30:31;29.00;;;16.33;;
73130;SDS011;64204;13.766;100.702;2024-03-17T00:32:57;22.80;;;14.63;;
73130;SDS011;64204;13.766;100.702;2024-03-17T00:35:24;25.42;;;15.35;;
73130;SDS011;64204;13.766;100.702;2024-03-17T00:37:51;26.05;;;16.08;;
73130;SDS011;64204;13.766;100.702;2024-03-17T00:40:19;25.27;;;14.82;;
73130;SDS011;64204;13.766;100.702;2024-03-17T00:42:46;25.00;;;15.20;;
73130;SDS011;64204;13.766;100.702;2024-03-17T00:45:13;28.80;;;16.23;;
73130;SDS011;64204;13.766;100.702;2024-03-17T00:47:40;26.13;;;16.02;;
73130;SDS011;64204;13.766;100.702;2024-03-17T00:50:07;25.35;;;14.05;;
73130;SDS011;64204;13.766;100.702;2024-03-17T00:52:34;29.75;;;16.20;;
73130;SDS011;64204;13.766;100.702;2024-03-17T00:55:00;30.40;;;16.58;;
73130;SDS011;64204;13.766;100.702;2024-03-17T00:57:27;34.33;;;17.23;;
73130;SDS011;64204;13.766;100.702;2024-03-17T00:59:54;22.42;;;14.57;;
73130;SDS011;64204;13.766;100.702;2024-03-17T01:02:21;25.08;;;14.93;;
73130;SDS011;64204;13.766;100.702;2024-03-17T01:04:48;30.60;;;17.33;;
73130;SDS011;64204;13.766;100.702;2024-03-17T01:07:14;31.55;;;15.38;;
73130;SDS011;64204;13.766;100.702;2024-03-17T01:09:41;31.17;;;16.63;;
73130;SDS011;64204;13.766;100.702;2024-03-17T01:12:07;30.30;;;17.50;;
73130;SDS011;64204;13.766;100.702;2024-03-17T01:14:34;26.63;;;16.08;;
73130;SDS011;64204;13.766;100.702;2024-03-17T01:17:00;32.63;;;17.08;;
73130;SDS011;64204;13.766;100.702;2024-03-17T01:19:30;30.15;;;17.35;;
73130;SDS011;64204;13.766;100.702;2024-03-17T01:21:57;25.75;;;15.85;;
73130;SDS011;64204;13.766;100.702;2024-03-17T01:24:25;25.90;;;13.15;;
73130;SDS011;64204;13.766;100.702;2024-03-17T01:27:00;19.25;;;13.35;;
73130;SDS011;64204;13.766;100.702;2024-03-17T01:29:27;18.60;;;12.50;;
73130;SDS011;64204;13.766;100.702;2024-03-17T01:31:53;25.38;;;15.00;;
73130;SDS011;64204;13.766;100.702;2024-03-17T01:34:21;18.05;;;11.35;;
73130;SDS011;64204;13.766;100.702;2024-03-17T01:36:47;19.58;;;10.88;;
73130;SDS011;64204;13.766;100.702;2024-03-17T01:39:13;30.55;;;12.52;;
73130;SDS011;64204;13.766;100.702;2024-03-17T01:41:41;21.40;;;12.18;;
73130;SDS011;64204;13.766;100.702;2024-03-17T01:44:08;19.25;;;10.63;;
73130;SDS011;64204;13.766;100.702;2024-03-17T01:46:48;21.48;;;11.43;;
73130;SDS011;64204;13.766;100.702;2024-03-17T01:49:15;17.90;;;9.70;;
73130;SDS011;64204;13.766;100.702;2024-03-17T01:51:43;14.95;;;8.32;;
73130;SDS011;64204;13.766;100.702;2024-03-17T01:54:11;16.73;;;9.32;;
73130;SDS011;64204;13.766;100.702;2024-03-17T01:56:38;15.88;;;9.00;;
73130;SDS011;64204;13.766;100.702;2024-03-17T01:59:05;17.52;;;9.18;;
73130;SDS011;64204;13.766;100.702;2024-03-17T02:01:34;19.08;;;8.20;;
73130;SDS011;64204;13.766;100.702;2024-03-17T02:04:00;12.55;;;7.55;;
73130;SDS011;64204;13.766;100.702;2024-03-17T02:06:27;18.23;;;7.75;;
73130;SDS011;64204;13.766;100.702;2024-03-17T02:08:54;16.17;;;7.35;;
73130;SDS011;64204;13.766;100.702;2024-03-17T02:11:28;10.77;;;6.38;;
73130;SDS011;64204;13.766;100.702;2024-03-17T02:13:56;11.00;;;6.75;;
73130;SDS011;64204;13.766;100.702;2024-03-17T02:16:24;14.15;;;6.50;;
73130;SDS011;64204;13.766;100.702;2024-03-17T02:18:54;11.88;;;6.25;;
73130;SDS011;64204;13.766;100.702;2024-03-17T02:21:21;10.93;;;6.03;;
73130;SDS011;64204;13.766;100.702;2024-03-17T02:23:53;13.35;;;6.40;;
73130;SDS011;64204;13.766;100.702;2024-03-17T02:26:19;11.98;;;6.70;;
73130;SDS011;64204;13.766;100.702;2024-03-17T02:28:47;11.98;;;5.70;;
73130;SDS011;64204;13.766;100.702;2024-03-17T02:31:14;13.60;;;5.30;;
73130;SDS011;64204;13.766;100.702;2024-03-17T02:33:41;13.13;;;5.53;;
73130;SDS011;64204;13.766;100.702;2024-03-17T02:36:09;11.25;;;6.00;;
73130;SDS011;64204;13.766;100.702;2024-03-17T02:38:38;8.93;;;5.93;;
73130;SDS011;64204;13.766;100.702;2024-03-17T02:41:23;8.27;;;5.80;;
73130;SDS011;64204;13.766;100.702;2024-03-17T02:43:49;13.10;;;5.47;;
73130;SDS011;64204;13.766;100.702;2024-03-17T02:46:16;8.38;;;5.60;;
73130;SDS011;64204;13.766;100.702;2024-03-17T02:48:49;11.73;;;5.78;;
73130;SDS011;64204;13.766;100.702;2024-03-17T02:51:18;8.73;;;5.53;;
73130;SDS011;64204;13.766;100.702;2024-03-17T02:53:47;10.40;;;5.70;;
73130;SDS011;64204;13.766;100.702;2024-03-17T02:56:14;8.63;;;5.07;;
73130;SDS011;64204;13.766;100.702;2024-03-17T02:58:42;9.60;;;5.53;;
73130;SDS011;64204;13.766;100.702;2024-03-17T03:01:08;14.48;;;6.20;;
73130;SDS011;64204;13.766;100.702;2024-03-17T03:03:35;8.30;;;5.15;;
73130;SDS011;64204;13.766;100.702;2024-03-17T03:06:02;9.27;;;5.60;;
73130;SDS011;64204;13.766;100.702;2024-03-17T03:08:37;7.90;;;5.30;;
73130;SDS011;64204;13.766;100.702;2024-03-17T03:13:37;9.80;;;5.10;;
73130;SDS011;64204;13.766;100.702;2024-03-17T03:18:31;9.70;;;6.00;;
73130;SDS011;64204;13.766;100.702;2024-03-17T03:20:58;10.45;;;6.20;;
73130;SDS011;64204;13.766;100.702;2024-03-17T03:23:24;10.70;;;6.82;;
73130;SDS011;64204;13.766;100.702;2024-03-17T03:25:57;9.38;;;6.50;;
73130;SDS011;64204;13.766;100.702;2024-03-17T03:28:25;12.27;;;6.28;;
73130;SDS011;64204;13.766;100.702;2024-03-17T03:30:52;8.45;;;5.68;;
73130;SDS011;64204;13.766;100.702;2024-03-17T03:33:19;10.32;;;5.43;;
73130;SDS011;64204;13.766;100.702;2024-03-17T03:35:46;9.60;;;5.43;;
73130;SDS011;64204;13.766;100.702;2024-03-17T03:38:12;13.23;;;6.30;;
73130;SDS011;64204;13.766;100.702;2024-03-17T03:40:42;9.77;;;6.53;;
73130;SDS011;64204;13.766;100.702;2024-03-17T03:43:09;9.52;;;6.28;;
73130;SDS011;64204;13.766;100.702;2024-03-17T03:45:36;12.13;;;7.38;;
73130;SDS011;64204;13.766;100.702;2024-03-17T03:48:03;13.43;;;7.10;;
73130;SDS011;64204;13.766;100.702;2024-03-17T03:50:30;12.77;;;6.60;;
73130;SDS011;64204;13.766;100.702;2024-03-17T03:52:57;9.10;;;6.32;;
73130;SDS011;64204;13.766;100.702;2024-03-17T03:55:23;10.73;;;6.45;;
73130;SDS011;64204;13.766;100.702;2024-03-17T03:57:49;11.52;;;6.68;;
73130;SDS011;64204;13.766;100.702;2024-03-17T04:00:21;15.40;;;6.70;;
73130;SDS011;64204;13.766;100.702;2024-03-17T04:02:48;11.80;;;7.20;;
73130;SDS011;64204;13.766;100.702;2024-03-17T04:05:15;10.98;;;6.53;;
73130;SDS011;64204;13.766;100.702;2024-03-17T04:07:42;11.57;;;6.15;;
73130;SDS011;64204;13.766;100.702;2024-03-17T04:10:11;14.95;;;6.60;;
73130;SDS011;64204;13.766;100.702;2024-03-17T04:12:38;10.93;;;6.65;;
73130;SDS011;64204;13.766;100.702;2024-03-17T04:15:05;14.27;;;7.80;;
73130;SDS011;64204;13.766;100.702;2024-03-17T04:17:32;9.93;;;6.68;;
73130;SDS011;64204;13.766;100.702;2024-03-17T04:19:59;10.77;;;7.13;;
73130;SDS011;64204;13.766;100.702;2024-03-17T04:22:25;10.73;;;7.00;;
73130;SDS011;64204;13.766;100.702;2024-03-17T04:24:52;12.75;;;7.57;;
73130;SDS011;64204;13.766;100.702;2024-03-17T04:27:19;11.02;;;6.88;;
73130;SDS011;64204;13.766;100.702;2024-03-17T04:29:46;12.13;;;7.43;;
73130;SDS011;64204;13.766;100.702;2024-03-17T04:32:16;11.40;;;6.88;;
73130;SDS011;64204;13.766;100.702;2024-03-17T04:34:42;11.50;;;7.45;;
73130;SDS011;64204;13.766;100.702;2024-03-17T04:37:12;12.40;;;7.35;;
73130;SDS011;64204;13.766;100.702;2024-03-17T04:39:45;8.88;;;6.63;;
73130;SDS011;64204;13.766;100.702;2024-03-17T04:42:13;11.77;;;7.35;;
73130;SDS011;64204;13.766;100.702;2024-03-17T04:47:07;12.63;;;6.72;;
73130;SDS011;64204;13.766;100.702;2024-03-17T04:49:38;9.25;;;7.35;;
73130;SDS011;64204;13.766;100.702;2024-03-17T04:52:05;14.43;;;7.22;;
73130;SDS011;64204;13.766;100.702;2024-03-17T04:54:32;11.30;;;6.53;;
73130;SDS011;64204;13.766;100.702;2024-03-17T04:56:59;13.60;;;7.90;;
73130;SDS011;64204;13.766;100.702;2024-03-17T04:59:27;10.95;;;7.10;;
73130;SDS011;64204;13.766;100.702;2024-03-17T05:01:53;11.77;;;7.18;;
73130;SDS011;64204;13.766;100.702;2024-03-17T05:04:20;10.93;;;7.25;;
73130;SDS011;64204;13.766;100.702;2024-03-17T05:06:46;10.93;;;7.20;;
73130;SDS011;64204;13.766;100.702;2024-03-17T05:09:18;12.40;;;8.15;;
73130;SDS011;64204;13.766;100.702;2024-03-17T05:11:45;12.45;;;8.43;;
73130;SDS011;64204;13.766;100.702;2024-03-17T05:14:12;9.60;;;6.63;;
73130;SDS011;64204;13.766;100.702;2024-03-17T05:16:41;12.90;;;6.88;;
73130;SDS011;64204;13.766;100.702;2024-03-17T05:19:08;11.02;;;6.75;;
73130;SDS011;64204;13.766;100.702;2024-03-17T05:21:34;12.13;;;7.10;;
73130;SDS011;64204;13.766;100.702;2024-03-17T05:24:01;11.68;;;7.07;;
73130;SDS011;64204;13.766;100.702;2024-03-17T05:26:28;10.85;;;7.55;;
73130;SDS011;64204;13.766;100.702;2024-03-17T05:28:56;10.48;;;7.38;;
73130;SDS011;64204;13.766;100.702;2024-03-17T05:31:23;11.77;;;7.22;;
73130;SDS011;64204;13.766;100.702;2024-03-17T05:33:49;12.68;;;7.22;;
73130;SDS011;64204;13.766;100.702;2024-03-17T05:36:17;11.73;;;7.78;;
73130;SDS011;64204;13.766;100.702;2024-03-17T05:38:45;15.48;;;7.97;;
73130;SDS011;64204;13.766;100.702;2024-03-17T05:41:12;13.40;;;8.00;;
73130;SDS011;64204;13.766;100.702;2024-03-17T05:43:39;9.98;;;7.30;;
73130;SDS011;64204;13.766;100.702;2024-03-17T05:46:09;9.95;;;7.22;;
73130;SDS011;64204;13.766;100.702;2024-03-17T05:48:37;11.48;;;7.75;;
73130;SDS011;64204;13.766;100.702;2024-03-17T05:51:07;12.05;;;8.35;;
73130;SDS011;64204;13.766;100.702;2024-03-17T05:53:34;11.13;;;7.45;;
73130;SDS011;64204;13.766;100.702;2024-03-17T05:56:06;13.60;;;7.85;;
73130;SDS011;64204;13.766;100.702;2024-03-17T05:58:37;13.30;;;7.90;;
73130;SDS011;64204;13.766;100.702;2024-03-17T06:01:03;11.52;;;8.07;;
73130;SDS011;64204;13.766;100.702;2024-03-17T06:03:32;12.60;;;8.15;;
73130;SDS011;64204;13.766;100.702;2024-03-17T06:06:01;12.30;;;7.60;;
73130;SDS011;64204;13.766;100.702;2024-03-17T06:08:29;11.80;;;8.02;;
73130;SDS011;64204;13.766;100.702;2024-03-17T06:10:55;12.57;;;8.00;;
73130;SDS011;64204;13.766;100.702;2024-03-17T06:13:28;11.52;;;7.20;;
73130;SDS011;64204;13.766;100.702;2024-03-17T06:15:55;11.18;;;7.38;;
73130;SDS011;64204;13.766;100.702;2024-03-17T06:18:26;12.98;;;8.32;;
73130;SDS011;64204;13.766;100.702;2024-03-17T06:20:53;13.02;;;8.45;;
73130;SDS011;64204;13.766;100.702;2024-03-17T06:23:23;11.15;;;7.35;;
73130;SDS011;64204;13.766;100.702;2024-03-17T06:25:52;12.63;;;8.07;;
73130;SDS011;64204;13.766;100.702;2024-03-17T06:28:20;10.70;;;7.40;;
73130;SDS011;64204;13.766;100.702;2024-03-17T06:30:57;11.48;;;7.75;;
73130;SDS011;64204;13.766;100.702;2024-03-17T06:33:30;12.15;;;7.63;;
73130;SDS011;64204;13.766;100.702;2024-03-17T06:35:57;10.32;;;8.15;;
73130;SDS011;64204;13.766;100.702;2024-03-17T06:38:24;10.95;;;7.38;;
73130;SDS011;64204;13.766;100.702;2024-03-17T06:40:51;10.73;;;6.75;;
73130;SDS011;64204;13.766;100.702;2024-03-17T06:43:18;8.88;;;7.00;;
73130;SDS011;64204;13.766;100.702;2024-03-17T06:45:54;13.07;;;7.35;;
73130;SDS011;64204;13.766;100.702;2024-03-17T06:48:21;15.50;;;7.57;;
73130;SDS011;64204;13.766;100.702;2024-03-17T06:50:48;11.88;;;6.97;;
73130;SDS011;64204;13.766;100.702;2024-03-17T06:53:15;9.98;;;6.38;;
73130;SDS011;64204;13.766;100.702;2024-03-17T06:55:41;9.60;;;6.53;;
73130;SDS011;64204;13.766;100.702;2024-03-17T06:58:07;8.10;;;6.40;;
73130;SDS011;64204;13.766;100.702;2024-03-17T07:00:34;10.05;;;6.97;;
73130;SDS011;64204;13.766;100.702;2024-03-17T07:03:00;9.57;;;6.82;;
73130;SDS011;64204;13.766;100.702;2024-03-17T07:05:27;10.35;;;6.70;;
73130;SDS011;64204;13.766;100.702;2024-03-17T07:07:55;10.60;;;6.70;;
73130;SDS011;64204;13.766;100.702;2024-03-17T07:10:21;9.95;;;6.63;;
73130;SDS011;64204;13.766;100.702;2024-03-17T07:12:48;10.85;;;6.43;;
73130;SDS011;64204;13.766;100.702;2024-03-17T07:15:14;10.38;;;6.55;;
73130;SDS011;64204;13.766;100.702;2024-03-17T07:17:41;9.90;;;6.00;;
73130;SDS011;64204;13.766;100.702;2024-03-17T07:20:07;10.90;;;6.57;;
73130;SDS011;64204;13.766;100.702;2024-03-17T07:22:36;9.38;;;6.25;;
73130;SDS011;64204;13.766;100.702;2024-03-17T07:25:02;12.02;;;7.03;;
73130;SDS011;64204;13.766;100.702;2024-03-17T07:27:29;12.98;;;7.57;;
73130;SDS011;64204;13.766;100.702;2024-03-17T07:29:56;10.32;;;6.97;;
73130;SDS011;64204;13.766;100.702;2024-03-17T07:32:22;9.13;;;6.22;;
73130;SDS011;64204;13.766;100.702;2024-03-17T07:34:49;9.88;;;6.63;;
73130;SDS011;64204;13.766;100.702;2024-03-17T07:37:15;11.98;;;7.03;;
73130;SDS011;64204;13.766;100.702;2024-03-17T07:39:43;12.35;;;7.40;;
73130;SDS011;64204;13.766;100.702;2024-03-17T07:42:09;11.48;;;8.05;;
73130;SDS011;64204;13.766;100.702;2024-03-17T07:44:38;9.85;;;6.65;;
73130;SDS011;64204;13.766;100.702;2024-03-17T07:47:05;9.40;;;6.75;;
73130;SDS011;64204;13.766;100.702;2024-03-17T07:49:31;10.57;;;6.82;;
73130;SDS011;64204;13.766;100.702;2024-03-17T07:51:58;12.05;;;6.90;;
73130;SDS011;64204;13.766;100.702;2024-03-17T07:54:24;10.93;;;7.80;;
73130;SDS011;64204;13.766;100.702;2024-03-17T07:56:51;11.05;;;7.05;;
73130;SDS011;64204;13.766;100.702;2024-03-17T07:59:18;11.30;;;7.28;;
73130;SDS011;64204;13.766;100.702;2024-03-17T08:01:44;13.77;;;7.65;;
73130;SDS011;64204;13.766;100.702;2024-03-17T08:04:11;11.50;;;8.02;;
73130;SDS011;64204;13.766;100.702;2024-03-17T08:06:41;14.10;;;8.10;;
73130;SDS011;64204;13.766;100.702;2024-03-17T08:09:07;13.60;;;8.00;;
73130;SDS011;64204;13.766;100.702;2024-03-17T08:11:37;12.98;;;8.48;;
73130;SDS011;64204;13.766;100.702;2024-03-17T08:14:04;13.93;;;8.68;;
73130;SDS011;64204;13.766;100.702;2024-03-17T08:16:31;12.93;;;8.27;;
73130;SDS011;64204;13.766;100.702;2024-03-17T08:18:57;13.77;;;9.07;;
73130;SDS011;64204;13.766;100.702;2024-03-17T08:21:24;12.32;;;9.18;;
73130;SDS011;64204;13.766;100.702;2024-03-17T08:23:51;10.75;;;8.32;;
73130;SDS011;64204;13.766;100.702;2024-03-17T08:26:17;12.63;;;8.43;;
73130;SDS011;64204;13.766;100.702;2024-03-17T08:28:44;13.00;;;8.65;;
73130;SDS011;64204;13.766;100.702;2024-03-17T08:31:12;16.02;;;8.80;;
73130;SDS011;64204;13.766;100.702;2024-03-17T08:33:38;14.05;;;9.05;;
73130;SDS011;64204;13.766;100.702;2024-03-17T08:36:05;13.60;;;10.15;;
73130;SDS011;64204;13.766;100.702;2024-03-17T08:38:33;12.80;;;9.98;;
73130;SDS011;64204;13.766;100.702;2024-03-17T08:41:06;13.52;;;8.80;;
73130;SDS011;64204;13.766;100.702;2024-03-17T08:43:34;13.55;;;8.15;;
73130;SDS011;64204;13.766;100.702;2024-03-17T08:46:02;11.25;;;9.15;;
73130;SDS011;64204;13.766;100.702;2024-03-17T08:48:33;15.60;;;9.60;;
73130;SDS011;64204;13.766;100.702;2024-03-17T08:55:53;15.20;;;9.55;;
73130;SDS011;64204;13.766;100.702;2024-03-17T08:58:20;12.15;;;8.77;;
73130;SDS011;64204;13.766;100.702;2024-03-17T09:00:47;12.45;;;9.75;;
73130;SDS011;64204;13.766;100.702;2024-03-17T09:03:13;14.57;;;8.88;;
73130;SDS011;64204;13.766;100.702;2024-03-17T09:05:41;11.20;;;8.82;;
73130;SDS011;64204;13.766;100.702;2024-03-17T09:10:50;12.90;;;9.32;;
73130;SDS011;64204;13.766;100.702;2024-03-17T09:13:21;12.35;;;9.32;;
73130;SDS011;64204;13.766;100.702;2024-03-17T09:15:58;14.52;;;9.05;;
73130;SDS011;64204;13.766;100.702;2024-03-17T09:18:29;16.33;;;9.80;;
73130;SDS011;64204;13.766;100.702;2024-03-17T09:21:00;11.60;;;9.23;;
73130;SDS011;64204;13.766;100.702;2024-03-17T09:23:33;15.90;;;9.32;;
73130;SDS011;64204;13.766;100.702;2024-03-17T09:26:07;14.45;;;9.80;;
73130;SDS011;64204;13.766;100.702;2024-03-17T09:28:34;13.27;;;9.00;;
73130;SDS011;64204;13.766;100.702;2024-03-17T09:31:01;14.25;;;9.07;;
73130;SDS011;64204;13.766;100.702;2024-03-17T09:33:28;16.17;;;9.13;;
73130;SDS011;64204;13.766;100.702;2024-03-17T09:35:59;13.40;;;9.40;;
73130;SDS011;64204;13.766;100.702;2024-03-17T09:38:31;13.80;;;9.45;;
73130;SDS011;64204;13.766;100.702;2024-03-17T11:50:56;10.35;;;6.63;;
73130;SDS011;64204;13.766;100.702;2024-03-17T11:53:23;14.80;;;7.65;;
73130;SDS011;64204;13.766;100.702;2024-03-17T11:55:50;14.32;;;7.97;;
73130;SDS011;64204;13.766;100.702;2024-03-17T11:58:16;13.30;;;8.20;;
73130;SDS011;64204;13.766;100.702;2024-03-17T12:00:42;15.77;;;8.35;;
73130;SDS011;64204;13.766;100.702;2024-03-17T12:03:10;14.88;;;8.07;;
73130;SDS011;64204;13.766;100.702;2024-03-17T12:05:39;14.48;;;8.60;;
73130;SDS011;64204;13.766;100.702;2024-03-17T12:08:16;14.95;;;8.10;;
73130;SDS011;64204;13.766;100.702;2024-03-17T12:10:48;13.88;;;8.18;;
73130;SDS011;64204;13.766;100.702;2024-03-17T12:13:15;17.50;;;8.68;;
73130;SDS011;64204;13.766;100.702;2024-03-17T12:15:41;14.45;;;8.68;;
73130;SDS011;64204;13.766;100.702;2024-03-17T12:18:20;16.25;;;8.88;;
73130;SDS011;64204;13.766;100.702;2024-03-17T12:20:49;14.18;;;8.50;;
73130;SDS011;64204;13.766;100.702;2024-03-17T12:23:15;12.95;;;8.65;;
73130;SDS011;64204;13.766;100.702;2024-03-17T12:25:46;14.85;;;8.50;;
73130;SDS011;64204;13.766;100.702;2024-03-17T12:28:16;14.40;;;9.00;;
73130;SDS011;64204;13.766;100.702;2024-03-17T12:30:43;14.80;;;9.05;;
73130;SDS011;64204;13.766;100.702;2024-03-17T12:33:10;17.50;;;9.50;;
73130;SDS011;64204;13.766;100.702;2024-03-17T12:35:38;16.27;;;9.52;;
73130;SDS011;64204;13.766;100.702;2024-03-17T12:38:23;17.92;;;9.68;;
73130;SDS011;64204;13.766;100.702;2024-03-17T12:40:50;21.13;;;10.18;;
73130;SDS011;64204;13.766;100.702;2024-03-17T12:43:16;17.60;;;10.88;;
73130;SDS011;64204;13.766;100.702;2024-03-17T12:45:42;17.50;;;10.80;;
73130;SDS011;64204;13.766;100.702;2024-03-17T12:48:14;18.80;;;10.93;;
73130;SDS011;64204;13.766;100.702;2024-03-17T12:50:44;19.17;;;11.15;;
73130;SDS011;64204;13.766;100.702;2024-03-17T12:53:15;16.92;;;10.75;;
73130;SDS011;64204;13.766;100.702;2024-03-17T12:55:55;21.15;;;10.85;;
73130;SDS011;64204;13.766;100.702;2024-03-17T12:58:39;19.63;;;11.43;;
73130;SDS011;64204;13.766;100.702;2024-03-17T13:01:24;21.33;;;11.43;;
73130;SDS011;64204;13.766;100.702;2024-03-17T13:03:50;16.98;;;11.32;;
73130;SDS011;64204;13.766;100.702;2024-03-17T13:06:25;18.83;;;12.02;;
73130;SDS011;64204;13.766;100.702;2024-03-17T13:08:52;18.13;;;11.80;;
73130;SDS011;64204;13.766;100.702;2024-03-17T13:11:18;20.08;;;12.05;;
73130;SDS011;64204;13.766;100.702;2024-03-17T13:13:45;19.58;;;12.27;;
73130;SDS011;64204;13.766;100.702;2024-03-17T13:16:12;22.20;;;12.15;;
73130;SDS011;64204;13.766;100.702;2024-03-17T13:18:38;21.33;;;12.02;;
73130;SDS011;64204;13.766;100.702;2024-03-17T13:21:05;21.70;;;12.60;;
73130;SDS011;64204;13.766;100.702;2024-03-17T13:23:32;20.85;;;12.35;;
73130;SDS011;64204;13.766;100.702;2024-03-17T13:25:58;26.05;;;14.43;;
73130;SDS011;64204;13.766;100.702;2024-03-17T13:28:24;22.25;;;13.07;;
73130;SDS011;64204;13.766;100.702;2024-03-17T13:30:51;21.38;;;12.65;;
73130;SDS011;64204;13.766;100.702;2024-03-17T13:33:18;21.23;;;12.35;;
73130;SDS011;64204;13.766;100.702;2024-03-17T13:35:44;24.50;;;13.55;;
73130;SDS011;64204;13.766;100.702;2024-03-17T13:38:11;20.60;;;13.10;;
73130;SDS011;64204;13.766;100.702;2024-03-17T13:40:38;21.27;;;13.30;;
73130;SDS011;64204;13.766;100.702;2024-03-17T13:45:37;22.20;;;13.70;;
73130;SDS011;64204;13.766;100.702;2024-03-17T13:48:05;23.52;;;13.25;;
73130;SDS011;64204;13.766;100.702;2024-03-17T13:50:35;24.63;;;14.65;;
73130;SDS011;64204;13.766;100.702;2024-03-17T13:53:03;23.98;;;14.80;;
73130;SDS011;64204;13.766;100.702;2024-03-17T13:55:30;26.00;;;14.20;;
73130;SDS011;64204;13.766;100.702;2024-03-17T13:57:56;23.02;;;14.15;;
73130;SDS011;64204;13.766;100.702;2024-03-17T14:00:27;22.70;;;13.27;;
73130;SDS011;64204;13.766;100.702;2024-03-17T14:02:55;24.45;;;14.10;;
73130;SDS011;64204;13.766;100.702;2024-03-17T14:05:23;22.17;;;13.02;;
73130;SDS011;64204;13.766;100.702;2024-03-17T14:07:51;24.25;;;13.20;;
73130;SDS011;64204;13.766;100.702;2024-03-17T14:10:19;20.13;;;13.15;;
73130;SDS011;64204;13.766;100.702;2024-03-17T14:12:47;22.35;;;12.35;;
73130;SDS011;64204;13.766;100.702;2024-03-17T14:15:14;21.20;;;12.73;;
73130;SDS011;64204;13.766;100.702;2024-03-17T14:17:42;20.92;;;13.30;;
73130;SDS011;64204;13.766;100.702;2024-03-17T14:20:09;23.27;;;13.07;;
73130;SDS011;64204;13.766;100.702;2024-03-17T14:22:37;23.73;;;12.93;;
73130;SDS011;64204;13.766;100.702;2024-03-17T14:25:07;18.23;;;12.05;;
73130;SDS011;64204;13.766;100.702;2024-03-17T14:27:38;19.33;;;12.10;;
73130;SDS011;64204;13.766;100.702;2024-03-17T14:30:04;19.67;;;12.98;;
73130;SDS011;64204;13.766;100.702;2024-03-17T14:32:33;21.13;;;12.40;;
73130;SDS011;64204;13.766;100.702;2024-03-17T14:35:00;22.13;;;13.10;;
73130;SDS011;64204;13.766;100.702;2024-03-17T14:37:26;20.45;;;12.75;;
73130;SDS011;64204;13.766;100.702;2024-03-17T14:39:53;20.90;;;13.23;;
73130;SDS011;64204;13.766;100.702;2024-03-17T14:42:20;21.90;;;12.18;;
73130;SDS011;64204;13.766;100.702;2024-03-17T14:44:46;18.35;;;12.50;;
73130;SDS011;64204;13.766;100.702;2024-03-17T14:47:13;20.63;;;12.27;;
73130;SDS011;64204;13.766;100.702;2024-03-17T14:49:40;20.08;;;13.05;;
73130;SDS011;64204;13.766;100.702;2024-03-17T14:52:07;20.98;;;13.65;;
73130;SDS011;64204;13.766;100.702;2024-03-17T14:54:34;23.15;;;13.77;;
73130;SDS011;64204;13.766;100.702;2024-03-17T14:57:01;23.25;;;12.77;;
73130;SDS011;64204;13.766;100.702;2024-03-17T14:59:28;21.23;;;13.50;;
73130;SDS011;64204;13.766;100.702;2024-03-17T15:01:54;24.33;;;14.38;;
73130;SDS011;64204;13.766;100.702;2024-03-17T15:04:21;22.35;;;13.60;;
73130;SDS011;64204;13.766;100.702;2024-03-17T15:06:47;25.58;;;13.95;;
73130;SDS011;64204;13.766;100.702;2024-03-17T15:09:14;22.48;;;13.65;;
73130;SDS011;64204;13.766;100.702;2024-03-17T15:11:46;24.50;;;13.57;;
73130;SDS011;64204;13.766;100.702;2024-03-17T15:14:13;21.70;;;14.23;;
73130;SDS011;64204;13.766;100.702;2024-03-17T15:16:39;23.80;;;14.55;;
73130;SDS011;64204;13.766;100.702;2024-03-17T15:19:06;21.10;;;13.82;;
73130;SDS011;64204;13.766;100.702;2024-03-17T15:21:32;22.65;;;14.10;;
73130;SDS011;64204;13.766;100.702;2024-03-17T15:23:59;27.80;;;14.82;;
73130;SDS011;64204;13.766;100.702;2024-03-17T15:26:28;23.23;;;14.75;;
73130;SDS011;64204;13.766;100.702;2024-03-17T15:28:55;21.60;;;14.63;;
73130;SDS011;64204;13.766;100.702;2024-03-17T15:31:23;25.70;;;14.52;;
73130;SDS011;64204;13.766;100.702;2024-03-17T15:33:50;25.92;;;14.27;;
73130;SDS011;64204;13.766;100.702;2024-03-17T15:36:17;23.48;;;14.57;;
73130;SDS011;64204;13.766;100.702;2024-03-17T15:38:45;24.35;;;14.85;;
73130;SDS011;64204;13.766;100.702;2024-03-17T15:41:11;28.50;;;15.07;;
73130;SDS011;64204;13.766;100.702;2024-03-17T15:43:38;29.77;;;15.48;;
73130;SDS011;64204;13.766;100.702;2024-03-17T15:46:19;28.15;;;15.95;;
73130;SDS011;64204;13.766;100.702;2024-03-17T15:48:48;27.48;;;15.10;;
73130;SDS011;64204;13.766;100.702;2024-03-17T15:51:18;29.23;;;15.77;;
73130;SDS011;64204;13.766;100.702;2024-03-17T15:53:46;27.90;;;15.93;;
73130;SDS011;64204;13.766;100.702;2024-03-17T15:56:16;27.35;;;15.32;;
73130;SDS011;64204;13.766;100.702;2024-03-17T15:58:42;25.35;;;15.32;;
73130;SDS011;64204;13.766;100.702;2024-03-17T16:01:09;26.02;;;15.93;;
73130;SDS011;64204;13.766;100.702;2024-03-17T16:03:38;26.17;;;16.17;;
73130;SDS011;64204;13.766;100.702;2024-03-17T16:06:12;26.08;;;16.05;;
73130;SDS011;64204;13.766;100.702;2024-03-17T16:08:43;28.27;;;15.90;;
73130;SDS011;64204;13.766;100.702;2024-03-17T16:13:42;27.60;;;16.67;;
73130;SDS011;64204;13.766;100.702;2024-03-17T16:16:15;28.98;;;17.60;;
73130;SDS011;64204;13.766;100.702;2024-03-17T16:18:43;31.38;;;17.88;;
73130;SDS011;64204;13.766;100.702;2024-03-17T16:21:16;30.80;;;17.45;;
73130;SDS011;64204;13.766;100.702;2024-03-17T16:26:14;36.03;;;18.23;;
73130;SDS011;64204;13.766;100.702;2024-03-17T16:28:40;31.70;;;17.80;;
73130;SDS011;64204;13.766;100.702;2024-03-17T16:31:07;29.38;;;16.70;;
73130;SDS011;64204;13.766;100.702;2024-03-17T16:33:34;32.55;;;18.75;;
73130;SDS011;64204;13.766;100.702;2024-03-17T16:36:01;30.33;;;17.60;;
73130;SDS011;64204;13.766;100.702;2024-03-17T16:38:38;30.88;;;17.58;;
73130;SDS011;64204;13.766;100.702;2024-03-17T16:41:05;31.40;;;18.88;;
73130;SDS011;64204;13.766;100.702;2024-03-17T16:43:40;31.38;;;17.65;;